Time;durP1;ratioP1;P1;durP2;ratioP2;P2;SDS_P1;SDS_P2;PMS_P1;PMS_P2;Temp;Humidity;BMP_temperature;BMP_pressure;BME280_temperature;BME280_humidity;BME280_pressure;Samples;Min_cycle;Max_cycle;Signal;HPM_P1;HPM_P2
2022/11/08 00:01:31;;;;;;;;;;;23.90;92.70;;;;;;5065622;28;19975;-80
2022/11/08 00:04:01;;;;;;;;;;;23.60;93.50;;;;;;5070187;28;19952;-78
2022/11/08 00:14:48;;;;;;;;;;;25.70;90.20;;;;;;5059936;28;19955;-84
2022/11/08 00:17:16;;;;;;;;;;;26.50;90.30;;;;;;5058159;28;19916;-84
2022/11/08 00:19:43;;;;;;;;;;;26.90;90.00;;;;;;5059849;28;19920;-85
2022/11/08 00:22:10;;;;;;;;;;;27.50;90.10;;;;;;5062420;28;19965;-85
2022/11/08 00:24:37;;;;;;;;;;;28.10;91.40;;;;;;5061027;28;19924;-86
2022/11/08 00:27:05;;;;;;;;;;;28.30;85.80;;;;;;5059180;28;19952;-84
2022/11/08 00:29:36;;;;;;;;;;;28.00;89.00;;;;;;5053736;28;19949;-84
2022/11/08 00:32:03;;;;;;;;;;;28.00;89.20;;;;;;5065262;28;19916;-84
2022/11/08 00:34:31;;;;;;;;;;;28.20;89.10;;;;;;5063810;28;19916;-83
2022/11/08 00:36:58;;;;;;;;;;;28.50;88.10;;;;;;5062421;28;19921;-85
2022/11/08 00:39:27;;;;;;;;;;;28.60;88.00;;;;;;5065868;28;19919;-82
2022/11/08 00:41:54;;;;;;;;;;;28.90;90.00;;;;;;5065216;28;19943;-85
2022/11/08 00:44:23;;;;;;;;;;;29.40;89.20;;;;;;5071251;28;20301;-86
2022/11/08 00:46:50;;;;;;;;;;;29.70;88.40;;;;;;5068053;28;20317;-84
2022/11/08 00:49:20;;;;;;;;;;;29.60;85.60;;;;;;5072585;28;19919;-76
2022/11/08 00:51:47;;;;;;;;;;;29.10;84.20;;;;;;5069944;28;19967;-85
2022/11/08 00:54:15;;;;;;;;;;;28.80;87.00;;;;;;5069621;28;19921;-88
2022/11/08 00:56:42;;;;;;;;;;;29.00;88.70;;;;;;5070313;28;19924;-86
2022/11/08 00:59:13;;;;;;;;;;;29.30;86.80;;;;;;5072536;28;19912;-85
2022/11/08 01:01:40;;;;;;;;;;;29.20;84.40;;;;;;5061623;28;19916;-87
2022/11/08 01:04:07;;;;;;;;;;;29.10;86.00;;;;;;5070838;28;19916;-86
2022/11/08 01:06:34;;;;;;;;;;;29.30;85.50;;;;;;5059185;28;19923;-80
2022/11/08 01:09:01;;;;;;;;;;;29.40;83.50;;;;;;5064414;28;20065;-84
2022/11/08 01:11:28;;;;;;;;;;;28.70;85.10;;;;;;5071282;28;20243;-82
2022/11/08 01:13:58;;;;;;;;;;;27.90;84.50;;;;;;5066946;28;19912;-88
2022/11/08 01:16:27;;;;;;;;;;;27.10;85.50;;;;;;5062009;28;20399;-79
2022/11/08 01:18:54;;;;;;;;;;;26.60;85.80;;;;;;5064569;28;19974;-88
2022/11/08 01:21:21;;;;;;;;;;;26.20;86.80;;;;;;5063178;28;19923;-85
2022/11/08 01:23:48;;;;;;;;;;;25.90;86.80;;;;;;5063638;28;20024;-85
2022/11/08 01:26:18;;;;;;;;;;;25.70;87.10;;;;;;5071905;28;20357;-89
2022/11/08 01:28:45;;;;;;;;;;;25.50;88.30;;;;;;5070691;28;19958;-83
2022/11/08 01:31:13;;;;;;;;;;;25.80;88.50;;;;;;5073510;28;19936;-89
2022/11/08 01:33:40;;;;;;;;;;;26.80;87.70;;;;;;5071401;28;20404;-81
2022/11/08 01:36:08;;;;;;;;;;;27.60;88.10;;;;;;5070346;28;20366;-83
2022/11/08 01:38:35;;;;;;;;;;;28.40;87.30;;;;;;5072534;28;19913;-89
2022/11/08 01:41:01;;;;;;;;;;;29.10;85.50;;;;;;5072537;28;19998;-87
2022/11/08 01:43:37;;;;;;;;;;;29.60;85.20;;;;;;5071484;28;19959;-83
2022/11/08 01:46:09;;;;;;;;;;;29.70;82.70;;;;;;5072534;28;19962;-85
2022/11/08 01:48:42;;;;;;;;;;;29.80;82.40;;;;;;5073426;28;20286;-85
2022/11/08 01:51:09;;;;;;;;;;;30.00;84.90;;;;;;5070959;28;19920;-89
2022/11/08 01:53:36;;;;;;;;;;;30.10;83.60;;;;;;5063857;28;19978;-82
2022/11/08 01:56:07;;;;;;;;;;;30.30;82.90;;;;;;5071492;28;19928;-86
2022/11/08 01:58:36;;;;;;;;;;;30.40;81.40;;;;;;5070761;28;20392;-86
2022/11/08 02:01:03;;;;;;;;;;;30.30;79.20;;;;;;5071144;28;20313;-91
2022/11/08 02:03:32;;;;;;;;;;;30.00;79.30;;;;;;5070879;28;20034;-91
2022/11/08 02:06:00;;;;;;;;;;;29.90;84.20;;;;;;5070945;28;20015;-81
2022/11/08 02:08:28;;;;;;;;;;;29.60;80.00;;;;;;5068876;28;20431;-84
2022/11/08 02:10:55;;;;;;;;;;;28.50;79.40;;;;;;5064289;28;19916;-76
2022/11/08 02:13:23;;;;;;;;;;;27.90;81.30;;;;;;5068870;28;19947;-79
2022/11/08 02:15:50;;;;;;;;;;;27.40;83.00;;;;;;5068784;28;19931;-79
2022/11/08 02:18:21;;;;;;;;;;;27.70;85.30;;;;;;5068611;28;19970;-87
2022/11/08 02:21:07;;;;;;;;;;;28.30;85.20;;;;;;5066026;28;20027;-88
2022/11/08 02:23:40;;;;;;;;;;;28.90;82.40;;;;;;5061956;28;19999;-83
2022/11/08 02:26:06;;;;;;;;;;;28.60;80.20;;;;;;5064452;28;20018;-81
2022/11/08 02:28:44;;;;;;;;;;;28.00;81.40;;;;;;5063585;28;19927;-86
2022/11/08 02:31:11;;;;;;;;;;;27.70;82.30;;;;;;5069722;28;20344;-89
2022/11/08 02:33:38;;;;;;;;;;;27.20;82.90;;;;;;5069009;28;19920;-84
2022/11/08 02:36:06;;;;;;;;;;;26.80;84.60;;;;;;5072623;28;19924;-86
2022/11/08 02:38:34;;;;;;;;;;;27.20;84.40;;;;;;5068963;28;19913;-79
2022/11/08 02:41:01;;;;;;;;;;;27.40;84.20;;;;;;5066250;28;19917;-83
2022/11/08 02:43:27;;;;;;;;;;;27.30;84.50;;;;;;5063340;28;19913;-81
2022/11/08 02:45:54;;;;;;;;;;;27.10;84.40;;;;;;5064773;28;19955;-84
2022/11/08 02:48:21;;;;;;;;;;;27.10;83.80;;;;;;5074870;28;19920;-89
2022/11/08 02:50:47;;;;;;;;;;;27.40;84.40;;;;;;5065633;28;19913;-85
2022/11/08 02:53:14;;;;;;;;;;;27.90;86.70;;;;;;5071597;28;19913;-83
2022/11/08 02:55:41;;;;;;;;;;;28.00;83.40;;;;;;5067085;28;19925;-81
2022/11/08 02:58:08;;;;;;;;;;;28.10;86.10;;;;;;5066149;28;19997;-85
2022/11/08 03:00:34;;;;;;;;;;;28.20;84.00;;;;;;5072274;28;19970;-83
2022/11/08 03:03:01;;;;;;;;;;;27.80;84.40;;;;;;5062490;28;19917;-81
2022/11/08 03:05:28;;;;;;;;;;;27.80;84.50;;;;;;5075466;28;19951;-88
2022/11/08 03:07:58;;;;;;;;;;;28.20;84.00;;;;;;5075674;28;19928;-89
2022/11/08 03:10:26;;;;;;;;;;;28.40;83.20;;;;;;5066114;28;19947;-85
2022/11/08 03:12:56;;;;;;;;;;;27.90;83.00;;;;;;5074161;28;19912;-81
2022/11/08 03:15:22;;;;;;;;;;;27.50;82.80;;;;;;5076790;28;19998;-79
2022/11/08 03:17:49;;;;;;;;;;;27.30;82.80;;;;;;5073888;28;19920;-82
2022/11/08 03:20:17;;;;;;;;;;;27.40;82.90;;;;;;5076953;28;19916;-82
2022/11/08 03:22:44;;;;;;;;;;;27.70;83.60;;;;;;5081689;28;20028;-83
2022/11/08 03:25:14;;;;;;;;;;;27.90;82.70;;;;;;5074482;28;19942;-83
2022/11/08 03:27:41;;;;;;;;;;;28.10;83.30;;;;;;5073049;28;19917;-84
2022/11/08 03:30:07;;;;;;;;;;;28.40;84.30;;;;;;5074604;28;20512;-92
2022/11/08 03:32:34;;;;;;;;;;;28.80;83.50;;;;;;5073973;28;19916;-80
2022/11/08 03:35:01;;;;;;;;;;;29.10;82.60;;;;;;5074017;28;19936;-88
2022/11/08 03:37:28;;;;;;;;;;;29.30;81.00;;;;;;5072852;28;20385;-82
2022/11/08 03:39:54;;;;;;;;;;;29.10;80.80;;;;;;5069445;28;19917;-84
2022/11/08 03:42:21;;;;;;;;;;;28.90;81.10;;;;;;5073829;28;19912;-88
2022/11/08 03:44:48;;;;;;;;;;;28.70;81.20;;;;;;5074456;28;19927;-75
2022/11/08 03:47:14;;;;;;;;;;;28.70;80.80;;;;;;5073755;28;19916;-87
2022/11/08 03:49:41;;;;;;;;;;;28.80;82.20;;;;;;5074250;28;20282;-86
2022/11/08 03:52:08;;;;;;;;;;;28.80;81.10;;;;;;5073017;28;20342;-84
2022/11/08 03:54:34;;;;;;;;;;;29.00;82.00;;;;;;5071574;28;19920;-90
2022/11/08 03:57:04;;;;;;;;;;;29.10;81.60;;;;;;5069275;28;19912;-87
2022/11/08 03:59:30;;;;;;;;;;;29.10;80.50;;;;;;5073978;28;20274;-81
2022/11/08 04:01:57;;;;;;;;;;;28.90;81.40;;;;;;5069794;28;20515;-76
2022/11/08 04:04:26;;;;;;;;;;;28.50;81.80;;;;;;5065088;28;19927;-85
2022/11/08 04:06:53;;;;;;;;;;;28.00;81.70;;;;;;5072798;28;19916;-87
2022/11/08 04:09:20;;;;;;;;;;;27.50;82.30;;;;;;5072034;28;19927;-85
2022/11/08 04:21:17;;;;;;;;;;;26.80;84.70;;;;;;5069826;28;19978;-82
2022/11/08 04:22:53;;;;;;;;;;;27.00;84.40;;;;;;5067437;28;19920;-83
2022/11/08 04:25:20;;;;;;;;;;;27.20;83.90;;;;;;5069733;28;19989;-82
2022/11/08 04:27:46;;;;;;;;;;;27.60;83.00;;;;;;5073097;28;19924;-77
2022/11/08 04:30:13;;;;;;;;;;;27.90;82.50;;;;;;5073893;28;19918;-83
2022/11/08 04:32:41;;;;;;;;;;;28.10;82.80;;;;;;5070903;28;20003;-83
2022/11/08 04:35:08;;;;;;;;;;;28.00;82.20;;;;;;5072719;28;19927;-87
2022/11/08 04:37:34;;;;;;;;;;;28.10;82.80;;;;;;5080541;28;20297;-83
2022/11/08 04:40:01;;;;;;;;;;;27.70;82.60;;;;;;5072085;28;19962;-86
2022/11/08 04:42:28;;;;;;;;;;;27.40;83.30;;;;;;5068838;28;20018;-85
2022/11/08 04:44:58;;;;;;;;;;;27.50;83.80;;;;;;5065942;28;19917;-90
2022/11/08 04:47:25;;;;;;;;;;;27.50;83.80;;;;;;5067189;28;20332;-77
2022/11/08 04:49:53;;;;;;;;;;;27.60;83.70;;;;;;5071025;28;19960;-89
2022/11/08 04:52:20;;;;;;;;;;;27.50;84.50;;;;;;5063033;28;19921;-71
2022/11/08 04:54:47;;;;;;;;;;;26.90;83.90;;;;;;5065494;28;19923;-78
2022/11/08 04:57:15;;;;;;;;;;;26.50;84.60;;;;;;5066223;28;19919;-84
2022/11/08 04:59:41;;;;;;;;;;;26.40;84.70;;;;;;5063772;28;19971;-85
2022/11/08 05:02:08;;;;;;;;;;;26.60;85.00;;;;;;5072854;28;20374;-88
2022/11/08 05:04:34;;;;;;;;;;;26.60;85.60;;;;;;5071572;28;20339;-84
2022/11/08 05:07:01;;;;;;;;;;;26.80;86.10;;;;;;5076977;28;19957;-90
2022/11/08 05:09:31;;;;;;;;;;;26.90;85.60;;;;;;5080037;28;19912;-89
2022/11/08 05:11:57;;;;;;;;;;;26.70;85.30;;;;;;5081915;28;19912;-75
2022/11/08 05:14:24;;;;;;;;;;;26.40;85.40;;;;;;5073073;28;20295;-85
2022/11/08 05:16:51;;;;;;;;;;;26.40;85.70;;;;;;5076642;28;20000;-73
2022/11/08 05:23:22;;;;;;;;;;;26.50;86.10;;;;;;5091840;28;19912;-79
2022/11/08 05:24:49;;;;;;;;;;;26.80;85.40;;;;;;5085245;28;19983;-85
2022/11/08 05:27:16;;;;;;;;;;;26.60;85.70;;;;;;5090782;28;20305;-81
2022/11/08 05:29:43;;;;;;;;;;;26.50;85.90;;;;;;5090318;28;19980;-82
2022/11/08 05:32:09;;;;;;;;;;;26.50;85.80;;;;;;5078863;28;19916;-84
2022/11/08 05:34:39;;;;;;;;;;;26.50;86.40;;;;;;5082537;28;19916;-91
2022/11/08 05:37:06;;;;;;;;;;;26.70;85.60;;;;;;5064364;28;19912;-85
2022/11/08 05:39:32;;;;;;;;;;;26.70;85.60;;;;;;5080758;28;19913;-87
2022/11/08 05:41:59;;;;;;;;;;;26.50;85.60;;;;;;5066010;28;19970;-83
2022/11/08 05:44:26;;;;;;;;;;;26.40;86.90;;;;;;5063826;28;19951;-71
2022/11/08 05:46:52;;;;;;;;;;;26.40;86.50;;;;;;5065619;28;19917;-86
2022/11/08 05:49:19;;;;;;;;;;;26.50;86.90;;;;;;5068640;28;20325;-76
2022/11/08 05:51:45;;;;;;;;;;;26.50;86.30;;;;;;5064849;28;20815;-83
2022/11/08 05:54:12;;;;;;;;;;;26.30;86.40;;;;;;5070747;28;19912;-79
2022/11/08 05:56:39;;;;;;;;;;;26.10;86.20;;;;;;5071632;28;19967;-70
2022/11/08 05:59:05;;;;;;;;;;;25.90;87.00;;;;;;5069116;28;20282;-84
2022/11/08 06:01:32;;;;;;;;;;;25.90;87.30;;;;;;5067575;28;19912;-85
2022/11/08 06:04:01;;;;;;;;;;;25.80;87.70;;;;;;5064449;28;19912;-83
2022/11/08 06:06:28;;;;;;;;;;;25.80;87.90;;;;;;5069047;28;19920;-84
2022/11/08 06:08:55;;;;;;;;;;;25.70;87.80;;;;;;5067736;28;19920;-90
2022/11/08 06:11:23;;;;;;;;;;;25.60;88.20;;;;;;5068368;28;20447;-80
2022/11/08 06:13:50;;;;;;;;;;;25.60;88.00;;;;;;5068686;28;20251;-81
2022/11/08 06:16:17;;;;;;;;;;;25.60;88.30;;;;;;5070769;28;19920;-81
2022/11/08 06:18:44;;;;;;;;;;;25.60;88.00;;;;;;5066424;28;19920;-83
2022/11/08 06:21:14;;;;;;;;;;;25.60;88.60;;;;;;5067196;28;20391;-73
2022/11/08 06:23:41;;;;;;;;;;;25.60;88.30;;;;;;5068956;28;19913;-71
2022/11/08 06:26:16;;;;;;;;;;;25.60;88.80;;;;;;5062831;28;19916;-83
2022/11/08 06:28:43;;;;;;;;;;;25.30;89.20;;;;;;5061539;28;19951;-79
2022/11/08 06:31:10;;;;;;;;;;;25.30;89.40;;;;;;5065508;28;19927;-71
2022/11/08 06:33:37;;;;;;;;;;;25.30;89.80;;;;;;5064774;28;19920;-83
2022/11/08 06:36:03;;;;;;;;;;;25.00;89.90;;;;;;5070475;28;20392;-73
2022/11/08 06:38:30;;;;;;;;;;;24.70;90.50;;;;;;5071357;28;19919;-79
2022/11/08 06:41:03;;;;;;;;;;;24.70;90.50;;;;;;5064178;28;19920;-71
2022/11/08 06:43:30;;;;;;;;;;;24.70;90.40;;;;;;5064499;28;19920;-82
2022/11/08 06:46:02;;;;;;;;;;;24.70;90.40;;;;;;5071264;28;19916;-85
2022/11/08 06:48:29;;;;;;;;;;;24.80;90.40;;;;;;5071058;28;20289;-76
2022/11/08 06:50:59;;;;;;;;;;;24.60;90.20;;;;;;5073563;28;19912;-89
2022/11/08 06:53:29;;;;;;;;;;;24.60;90.40;;;;;;5070195;28;19919;-88
2022/11/08 06:55:57;;;;;;;;;;;24.50;90.30;;;;;;5071238;28;20015;-86
2022/11/08 06:58:27;;;;;;;;;;;24.40;90.20;;;;;;5066911;28;19952;-87
2022/11/08 07:00:54;;;;;;;;;;;24.20;90.50;;;;;;5073311;28;19920;-92
2022/11/08 07:03:24;;;;;;;;;;;23.90;90.90;;;;;;5068601;28;19978;-84
2022/11/08 07:05:51;;;;;;;;;;;23.60;91.20;;;;;;5067320;28;19966;-83
2022/11/08 07:08:20;;;;;;;;;;;23.40;91.50;;;;;;5061128;28;19929;-81
2022/11/08 07:10:47;;;;;;;;;;;23.20;91.80;;;;;;5076400;28;19912;-90
2022/11/08 07:13:14;;;;;;;;;;;23.20;91.90;;;;;;5077632;28;20012;-89
2022/11/08 07:15:44;;;;;;;;;;;23.10;92.30;;;;;;5079100;28;20348;-80
2022/11/08 07:18:12;;;;;;;;;;;22.90;92.50;;;;;;5079374;28;20340;-88
2022/11/08 07:20:39;;;;;;;;;;;22.90;92.80;;;;;;5075428;28;19986;-68
2022/11/08 07:23:06;;;;;;;;;;;22.90;92.70;;;;;;5069634;28;19917;-72
2022/11/08 07:25:34;;;;;;;;;;;22.80;92.70;;;;;;5064083;28;19920;-81
2022/11/08 07:28:01;;;;;;;;;;;22.70;92.30;;;;;;5064073;28;19913;-82
2022/11/08 07:30:28;;;;;;;;;;;22.70;92.70;;;;;;5066589;28;20290;-73
2022/11/08 07:32:55;;;;;;;;;;;22.60;92.70;;;;;;5071534;28;19912;-81
2022/11/08 07:35:23;;;;;;;;;;;22.60;92.80;;;;;;5070286;28;20282;-83
2022/11/08 07:37:49;;;;;;;;;;;22.60;92.80;;;;;;5071236;28;19946;-88
2022/11/08 07:40:16;;;;;;;;;;;22.50;92.70;;;;;;5070938;28;19919;-84
2022/11/08 07:42:43;;;;;;;;;;;22.40;92.90;;;;;;5078524;28;20337;-80
2022/11/08 07:45:12;;;;;;;;;;;22.40;92.90;;;;;;5067881;28;20459;-80
2022/11/08 07:47:39;;;;;;;;;;;22.20;92.70;;;;;;5068354;28;19913;-83
2022/11/08 07:50:06;;;;;;;;;;;22.10;93.00;;;;;;5068847;28;19916;-84
2022/11/08 07:52:32;;;;;;;;;;;22.00;93.20;;;;;;5069581;28;20298;-83
2022/11/08 07:54:59;;;;;;;;;;;21.90;93.40;;;;;;5058456;28;19935;-75
2022/11/08 07:57:26;;;;;;;;;;;21.80;93.00;;;;;;5039996;28;19951;-82
2022/11/08 07:59:52;;;;;;;;;;;21.70;92.20;;;;;;5057975;28;19924;-76
2022/11/08 08:02:19;;;;;;;;;;;21.50;92.40;;;;;;5058693;28;19924;-79
2022/11/08 08:04:49;;;;;;;;;;;21.40;92.60;;;;;;5073361;28;19912;-82
2022/11/08 08:07:15;;;;;;;;;;;21.30;93.00;;;;;;5073135;28;20349;-71
2022/11/08 08:09:42;;;;;;;;;;;21.30;92.90;;;;;;5069658;28;20005;-86
2022/11/08 08:12:08;;;;;;;;;;;21.30;92.60;;;;;;5071063;28;19970;-81
2022/11/08 08:14:36;;;;;;;;;;;21.10;92.70;;;;;;5069806;28;19913;-83
2022/11/08 08:17:02;;;;;;;;;;;21.10;92.70;;;;;;5068738;28;19920;-72
2022/11/08 08:19:29;;;;;;;;;;;21.00;92.70;;;;;;5068804;28;19917;-82
2022/11/08 08:22:01;;;;;;;;;;;20.90;92.70;;;;;;5072632;28;20423;-85
2022/11/08 08:24:28;;;;;;;;;;;20.80;93.20;;;;;;5073740;28;19912;-79
2022/11/08 08:26:54;;;;;;;;;;;20.80;93.60;;;;;;5067301;28;19920;-83
2022/11/08 08:29:21;;;;;;;;;;;20.80;93.80;;;;;;5067853;28;19930;-86
2022/11/08 08:31:48;;;;;;;;;;;20.80;94.00;;;;;;5067211;28;20042;-88
2022/11/08 08:34:14;;;;;;;;;;;20.80;93.80;;;;;;5048237;28;19924;-81
2022/11/08 08:36:41;;;;;;;;;;;20.70;93.90;;;;;;5066606;28;20015;-83
2022/11/08 08:39:08;;;;;;;;;;;20.60;94.10;;;;;;5065655;28;20553;-85
2022/11/08 08:41:44;;;;;;;;;;;;;;;;;;;;;
2022/11/08 08:44:11;;;;;;;;;;;20.50;94.60;;;;;;5065912;28;19912;-86
2022/11/08 08:46:38;;;;;;;;;;;20.50;94.70;;;;;;5071543;28;19913;-86
2022/11/08 08:49:08;;;;;;;;;;;20.50;94.90;;;;;;5066218;28;19920;-87
2022/11/08 08:51:35;;;;;;;;;;;20.40;95.20;;;;;;5070029;28;19920;-77
2022/11/08 08:54:01;;;;;;;;;;;20.40;95.20;;;;;;5073821;28;19916;-88
2022/11/08 08:56:31;;;;;;;;;;;20.40;95.20;;;;;;5067799;28;19924;-75
2022/11/08 08:58:57;;;;;;;;;;;20.30;95.50;;;;;;5063972;28;19916;-79
2022/11/08 09:01:27;;;;;;;;;;;20.30;95.60;;;;;;5064106;28;20289;-80
2022/11/08 09:03:54;;;;;;;;;;;20.30;95.90;;;;;;5065619;28;19981;-74
2022/11/08 09:06:20;;;;;;;;;;;20.30;96.10;;;;;;5071648;28;19962;-91
2022/11/08 09:08:47;;;;;;;;;;;20.40;96.10;;;;;;5069429;28;19999;-78
2022/11/08 09:11:14;;;;;;;;;;;20.40;96.30;;;;;;5070016;28;19924;-86
2022/11/08 09:13:40;;;;;;;;;;;20.40;96.30;;;;;;5066123;28;19966;-90
2022/11/08 09:16:12;;;;;;;;;;;20.50;96.40;;;;;;5066638;28;19924;-87
2022/11/08 09:18:39;;;;;;;;;;;20.30;96.60;;;;;;5065864;28;19928;-85
2022/11/08 09:21:05;;;;;;;;;;;20.30;96.80;;;;;;5069200;28;19912;-74
2022/11/08 09:23:32;;;;;;;;;;;20.40;96.80;;;;;;5069912;28;19966;-84
2022/11/08 09:26:00;;;;;;;;;;;20.40;96.80;;;;;;5071477;28;19924;-84
2022/11/08 09:28:27;;;;;;;;;;;20.40;97.00;;;;;;5072223;28;19912;-83
2022/11/08 09:30:55;;;;;;;;;;;20.30;97.10;;;;;;5048933;28;19932;-86
2022/11/08 09:33:21;;;;;;;;;;;20.30;97.20;;;;;;5065542;28;19912;-81
2022/11/08 09:35:48;;;;;;;;;;;20.30;97.30;;;;;;5061407;28;19931;-87
2022/11/08 09:38:16;;;;;;;;;;;20.10;97.60;;;;;;5066057;28;19966;-80
2022/11/08 09:40:52;;;;;;;;;;;20.00;98.00;;;;;;5064468;28;20432;-87
2022/11/08 09:43:43;;;;;;;;;;;19.90;98.30;;;;;;5063166;28;19912;-83
2022/11/08 09:46:11;;;;;;;;;;;19.80;98.50;;;;;;5065634;28;19913;-88
2022/11/08 09:48:42;;;;;;;;;;;19.70;98.70;;;;;;5067639;28;19912;-80
2022/11/08 09:51:20;;;;;;;;;;;19.70;98.80;;;;;;5065094;28;20273;-80
2022/11/08 09:53:49;;;;;;;;;;;19.60;99.10;;;;;;5057458;28;20308;-79
2022/11/08 09:56:24;;;;;;;;;;;19.60;99.30;;;;;;5072258;28;20342;-80
2022/11/08 09:59:11;;;;;;;;;;;19.60;99.40;;;;;;5064611;28;19913;-79
2022/11/08 10:01:38;;;;;;;;;;;19.60;99.40;;;;;;5061184;28;20753;-78
2022/11/08 10:04:11;;;;;;;;;;;19.50;99.60;;;;;;5067605;28;20705;-80
2022/11/08 10:06:43;;;;;;;;;;;19.60;99.80;;;;;;5055867;28;19913;-82
2022/11/08 10:09:22;;;;;;;;;;;19.60;99.80;;;;;;5061042;28;19921;-77
2022/11/08 10:11:55;;;;;;;;;;;19.60;99.90;;;;;;5068615;28;20289;-75
2022/11/08 10:14:57;;;;;;;;;;;19.50;99.90;;;;;;5060044;28;19931;-82
2022/11/08 10:17:46;;;;;;;;;;;19.50;99.90;;;;;;5002959;28;20123;-80
2022/11/08 10:20:28;;;;;;;;;;;19.50;99.90;;;;;;5062212;28;19935;-80
2022/11/08 10:23:04;;;;;;;;;;;19.40;99.90;;;;;;5057800;28;19942;-77
2022/11/08 10:25:44;;;;;;;;;;;19.40;99.90;;;;;;5060133;28;20259;-78
2022/11/08 10:28:16;;;;;;;;;;;19.30;99.90;;;;;;5062460;28;20008;-70
2022/11/08 10:30:45;;;;;;;;;;;19.30;99.90;;;;;;5061372;28;20865;-77
2022/11/08 10:33:34;;;;;;;;;;;19.30;99.90;;;;;;5068524;28;20429;-76
2022/11/08 10:36:10;;;;;;;;;;;19.30;99.90;;;;;;5054721;28;19943;-78
2022/11/08 10:38:41;;;;;;;;;;;19.20;99.90;;;;;;5067079;28;19917;-77
2022/11/08 10:41:33;;;;;;;;;;;19.10;99.90;;;;;;5061742;28;19947;-70
2022/11/08 10:44:06;;;;;;;;;;;19.00;99.90;;;;;;5062375;28;20353;-73
2022/11/08 10:46:36;;;;;;;;;;;19.00;99.90;;;;;;5062562;28;20665;-81
2022/11/08 10:49:28;;;;;;;;;;;19.00;99.90;;;;;;5067354;28;20022;-78
2022/11/08 10:51:56;;;;;;;;;;;19.00;99.90;;;;;;5061541;28;20508;-77
2022/11/08 10:54:58;;;;;;;;;;;18.90;99.90;;;;;;5069513;28;19987;-81
2022/11/08 10:57:28;;;;;;;;;;;18.90;99.90;;;;;;4981318;28;19971;-78
2022/11/08 10:59:59;;;;;;;;;;;18.90;99.90;;;;;;5038862;28;19939;-78
2022/11/08 11:02:28;;;;;;;;;;;18.80;99.90;;;;;;5057130;28;19977;-75
2022/11/08 11:05:14;;;;;;;;;;;18.80;99.90;;;;;;5061698;28;20433;-80
2022/11/08 11:07:43;;;;;;;;;;;18.70;99.90;;;;;;5061400;28;19931;-75
2022/11/08 11:10:25;;;;;;;;;;;18.70;99.90;;;;;;5062938;28;19999;-75
2022/11/08 11:13:01;;;;;;;;;;;18.60;99.90;;;;;;5061383;28;19923;-76
2022/11/08 11:15:40;;;;;;;;;;;18.50;99.90;;;;;;5062359;28;19947;-74
2022/11/08 11:18:18;;;;;;;;;;;18.50;99.90;;;;;;5066514;28;19921;-81
2022/11/08 11:21:04;;;;;;;;;;;18.40;99.90;;;;;;5060887;28;19927;-80
2022/11/08 11:23:32;;;;;;;;;;;18.30;99.90;;;;;;5063997;28;19927;-81
2022/11/08 11:26:00;;;;;;;;;;;18.30;99.90;;;;;;5048886;28;19913;-80
2022/11/08 11:28:26;;;;;;;;;;;18.20;99.90;;;;;;5070977;28;19939;-78
2022/11/08 11:31:09;;;;;;;;;;;18.20;99.90;;;;;;5070205;28;19920;-81
2022/11/08 11:33:42;;;;;;;;;;;18.10;99.90;;;;;;5068997;28;19951;-79
2022/11/08 11:36:11;;;;;;;;;;;18.10;99.90;;;;;;5079797;28;19920;-80
2022/11/08 11:38:47;;;;;;;;;;;18.00;99.90;;;;;;5076026;28;19912;-84
2022/11/08 11:41:36;;;;;;;;;;;18.00;99.90;;;;;;5075954;28;20440;-83
2022/11/08 11:44:03;;;;;;;;;;;18.00;99.90;;;;;;5061875;28;19931;-81
2022/11/08 11:46:34;;;;;;;;;;;17.90;99.90;;;;;;5071224;28;19913;-81
2022/11/08 11:49:03;;;;;;;;;;;17.90;99.90;;;;;;5070209;28;20010;-76
2022/11/08 11:51:30;;;;;;;;;;;17.90;99.90;;;;;;5075349;28;19936;-77
2022/11/08 11:53:57;;;;;;;;;;;17.80;99.90;;;;;;5059509;28;20420;-80
2022/11/08 11:56:45;;;;;;;;;;;17.80;99.90;;;;;;5068143;28;20293;-81
2022/11/08 11:59:32;;;;;;;;;;;17.80;99.90;;;;;;5071388;28;19924;-77
2022/11/08 12:02:02;;;;;;;;;;;17.80;99.90;;;;;;5069835;28;20401;-76
2022/11/08 12:04:58;;;;;;;;;;;17.90;99.90;;;;;;5073942;28;19912;-75
2022/11/08 12:07:29;;;;;;;;;;;17.90;99.90;;;;;;4980086;28;20380;-77
2022/11/08 12:10:01;;;;;;;;;;;17.90;99.90;;;;;;5065006;28;19912;-77
2022/11/08 12:12:33;;;;;;;;;;;17.80;99.90;;;;;;5071823;28;19962;-76
2022/11/08 12:15:18;;;;;;;;;;;17.90;99.90;;;;;;5072190;28;19912;-79
2022/11/08 12:17:45;;;;;;;;;;;17.80;99.90;;;;;;5071712;28;19913;-75
2022/11/08 12:20:17;;;;;;;;;;;17.70;99.90;;;;;;5073596;28;19912;-74
2022/11/08 12:23:02;;;;;;;;;;;17.70;99.90;;;;;;5063557;28;20299;-74
2022/11/08 12:25:32;;;;;;;;;;;17.60;99.90;;;;;;5067392;28;19969;-74
2022/11/08 12:27:59;;;;;;;;;;;17.60;99.90;;;;;;5065712;28;19912;-76
2022/11/08 12:30:35;;;;;;;;;;;17.50;99.90;;;;;;5071774;28;19913;-77
2022/11/08 12:33:12;;;;;;;;;;;17.30;99.90;;;;;;5072635;28;19916;-74
2022/11/08 12:35:57;;;;;;;;;;;17.30;99.90;;;;;;5070731;28;19924;-77
2022/11/08 12:38:30;;;;;;;;;;;17.20;99.90;;;;;;5070469;28;20002;-75
2022/11/08 12:41:15;;;;;;;;;;;17.00;99.90;;;;;;5070914;28;19912;-69
2022/11/08 12:44:00;;;;;;;;;;;16.90;99.90;;;;;;5067145;28;19956;-74
2022/11/08 12:46:28;;;;;;;;;;;16.80;99.90;;;;;;5072579;28;19912;-74
2022/11/08 12:49:01;;;;;;;;;;;16.80;99.90;;;;;;5070634;28;19952;-73
2022/11/08 12:51:45;;;;;;;;;;;16.70;99.90;;;;;;5069381;28;19971;-75
2022/11/08 12:54:15;;;;;;;;;;;16.70;99.90;;;;;;5058363;28;19920;-74
2022/11/08 12:56:48;;;;;;;;;;;16.60;99.90;;;;;;5066958;28;20011;-74
2022/11/08 12:59:22;;;;;;;;;;;16.60;99.90;;;;;;5068557;28;20307;-74
2022/11/08 13:01:49;;;;;;;;;;;16.50;99.90;;;;;;5071180;28;19939;-73
2022/11/08 13:04:20;;;;;;;;;;;16.50;99.90;;;;;;5061817;28;20492;-74
2022/11/08 13:07:05;;;;;;;;;;;16.50;99.90;;;;;;5071632;28;20442;-74
2022/11/08 13:09:31;;;;;;;;;;;16.40;99.90;;;;;;5072087;28;19916;-75
2022/11/08 13:12:01;;;;;;;;;;;16.30;99.90;;;;;;5071464;28;19916;-74
2022/11/08 13:14:28;;;;;;;;;;;16.30;99.90;;;;;;5062210;28;19917;-74
2022/11/08 13:17:13;;;;;;;;;;;16.30;99.90;;;;;;5071395;28;19920;-75
2022/11/08 13:19:46;;;;;;;;;;;16.30;99.90;;;;;;5061429;28;19951;-75
2022/11/08 13:22:39;;;;;;;;;;;16.20;99.90;;;;;;5063157;28;20359;-72
2022/11/08 13:25:26;;;;;;;;;;;16.20;99.90;;;;;;5068290;28;19985;-75
2022/11/08 13:27:56;;;;;;;;;;;16.10;99.90;;;;;;5049887;28;19966;-75
2022/11/08 13:30:22;;;;;;;;;;;16.10;99.90;;;;;;5066900;28;19913;-76
2022/11/08 13:33:01;;;;;;;;;;;16.10;99.90;;;;;;5066640;28;19935;-71
2022/11/08 13:35:53;;;;;;;;;;;16.00;99.90;;;;;;5056631;28;20286;-74
2022/11/08 13:38:49;;;;;;;;;;;16.00;99.90;;;;;;5061293;28;19974;-73
2022/11/08 13:41:19;;;;;;;;;;;15.90;99.90;;;;;;5057613;28;19912;-74
2022/11/08 13:43:49;;;;;;;;;;;15.80;99.90;;;;;;5057928;28;19913;-70
2022/11/08 13:46:30;;;;;;;;;;;15.90;99.90;;;;;;5070261;28;19919;-75
2022/11/08 13:48:59;;;;;;;;;;;15.80;99.90;;;;;;5059005;28;19921;-73
2022/11/08 13:51:30;;;;;;;;;;;15.70;99.90;;;;;;5071594;28;20003;-74
2022/11/08 13:54:01;;;;;;;;;;;15.70;99.90;;;;;;5064392;28;19912;-74
2022/11/08 13:56:45;;;;;;;;;;;15.60;99.90;;;;;;5071440;28;19924;-75
2022/11/08 13:59:30;;;;;;;;;;;15.60;99.90;;;;;;5068709;28;20298;-75
2022/11/08 14:01:57;;;;;;;;;;;15.60;99.90;;;;;;5066025;28;19916;-75
2022/11/08 14:04:34;;;;;;;;;;;15.50;99.90;;;;;;5064173;28;20393;-72
2022/11/08 14:07:07;;;;;;;;;;;15.50;99.90;;;;;;5056134;28;20282;-76
2022/11/08 14:09:52;;;;;;;;;;;15.50;99.90;;;;;;5072158;28;19917;-77
2022/11/08 14:12:18;;;;;;;;;;;15.40;99.90;;;;;;5064291;28;19916;-69
2022/11/08 14:14:54;;;;;;;;;;;15.40;99.90;;;;;;5071185;28;19916;-70
2022/11/08 14:17:28;;;;;;;;;;;15.40;99.90;;;;;;5070040;28;20275;-73
2022/11/08 14:20:00;;;;;;;;;;;15.40;99.90;;;;;;5055404;28;19956;-73
2022/11/08 14:22:28;;;;;;;;;;;15.40;99.90;;;;;;5058603;28;19958;-74
2022/11/08 14:24:59;;;;;;;;;;;15.40;99.90;;;;;;5063134;28;20279;-73
2022/11/08 14:27:36;;;;;;;;;;;15.30;99.90;;;;;;5068912;28;19912;-75
2022/11/08 14:30:05;;;;;;;;;;;15.30;99.90;;;;;;5070159;28;19912;-71
2022/11/08 14:32:34;;;;;;;;;;;15.30;99.90;;;;;;5065674;28;19913;-77
2022/11/08 14:35:11;;;;;;;;;;;15.30;99.90;;;;;;5055717;28;19912;-76
2022/11/08 14:37:41;;;;;;;;;;;15.20;99.90;;;;;;5062965;28;20019;-74
2022/11/08 14:40:16;;;;;;;;;;;15.20;99.90;;;;;;5065017;28;20691;-74
2022/11/08 14:42:43;;;;;;;;;;;15.10;99.90;;;;;;5062601;28;19954;-74
2022/11/08 14:45:13;;;;;;;;;;;15.10;99.90;;;;;;5069331;28;19920;-73
2022/11/08 14:47:41;;;;;;;;;;;15.10;99.90;;;;;;5067854;28;19962;-74
2022/11/08 14:50:15;;;;;;;;;;;15.00;99.90;;;;;;5070703;28;20328;-75
2022/11/08 14:52:42;;;;;;;;;;;15.00;99.90;;;;;;5069980;28;19916;-72
2022/11/08 14:55:10;;;;;;;;;;;15.00;99.90;;;;;;5071347;28;19947;-75
2022/11/08 14:57:37;;;;;;;;;;;15.00;99.90;;;;;;5062356;28;20002;-76